Time;durP1;ratioP1;P1;durP2;ratioP2;P2;SDS_P1;SDS_P2;PMS_P1;PMS_P2;Temp;Humidity;BMP_temperature;BMP_pressure;BME280_temperature;BME280_humidity;BME280_pressure;Samples;Min_cycle;Max_cycle;Signal;HPM_P1;HPM_P2
2021/05/03 00:02:06;;;;;;;14.68;12.00;;;12.10;58.90;;;;;;5048796;28;20029;-66
2021/05/03 00:04:33;;;;;;;13.45;10.70;;;12.10;58.80;;;;;;5047049;28;20028;-66
2021/05/03 00:06:58;;;;;;;15.00;11.70;;;12.00;58.80;;;;;;5048284;28;20029;-66
2021/05/03 00:09:24;;;;;;;15.13;11.70;;;12.00;58.90;;;;;;5048599;28;20025;-66
2021/05/03 00:11:50;;;;;;;16.58;12.70;;;12.00;59.00;;;;;;5049535;28;20025;-66
2021/05/03 00:14:16;;;;;;;13.05;11.60;;;12.00;58.90;;;;;;5040988;28;20030;-66
2021/05/03 00:16:41;;;;;;;12.25;10.80;;;11.90;58.90;;;;;;5032955;28;20035;-66
2021/05/03 00:19:07;;;;;;;16.02;11.80;;;11.90;59.00;;;;;;5022074;28;20045;-66
2021/05/03 00:21:33;;;;;;;13.43;11.00;;;11.90;59.00;;;;;;5012341;28;20097;-66
2021/05/03 00:23:59;;;;;;;15.45;13.13;;;11.90;59.00;;;;;;5016447;28;20029;-65
2021/05/03 00:26:25;;;;;;;15.25;12.85;;;11.90;59.10;;;;;;5031841;28;20104;-66
2021/05/03 00:28:51;;;;;;;12.63;10.90;;;11.90;59.10;;;;;;5030513;28;20116;-66
2021/05/03 00:31:17;;;;;;;15.40;12.57;;;11.90;59.20;;;;;;5033107;28;20067;-66
2021/05/03 00:33:42;;;;;;;16.23;12.32;;;12.00;59.10;;;;;;5031557;28;20039;-66
2021/05/03 00:36:08;;;;;;;17.83;12.38;;;12.00;59.70;;;;;;5030574;28;20026;-66
2021/05/03 00:38:34;;;;;;;14.00;11.93;;;12.00;59.00;;;;;;5031933;28;20032;-66
2021/05/03 00:41:01;;;;;;;15.88;12.50;;;12.00;59.10;;;;;;5031815;28;20048;-66
2021/05/03 00:43:27;;;;;;;13.25;10.73;;;12.10;58.90;;;;;;5032623;28;20068;-66
2021/05/03 00:45:53;;;;;;;14.77;11.70;;;12.10;58.90;;;;;;5030250;28;20124;-66
2021/05/03 00:48:19;;;;;;;14.10;11.90;;;12.20;58.80;;;;;;5031470;28;20124;-67
2021/05/03 00:50:46;;;;;;;14.05;11.25;;;12.20;58.80;;;;;;5031658;28;20387;-66
2021/05/03 00:53:12;;;;;;;16.33;12.00;;;12.20;58.80;;;;;;5031457;28;20029;-66
2021/05/03 00:55:38;;;;;;;14.68;12.60;;;12.20;58.80;;;;;;5032469;28;20067;-66
2021/05/03 00:58:04;;;;;;;19.40;14.23;;;12.20;58.70;;;;;;5031601;28;20041;-66
2021/05/03 01:00:31;;;;;;;17.92;14.23;;;12.30;58.60;;;;;;5032425;28;20490;-66
2021/05/03 01:02:58;;;;;;;17.83;14.05;;;12.30;58.20;;;;;;5031070;28;20539;-66
2021/05/03 01:05:27;;;;;;;16.52;13.80;;;12.20;58.10;;;;;;5041363;28;20068;-66
2021/05/03 01:07:53;;;;;;;16.13;13.52;;;12.20;58.10;;;;;;5036429;28;20119;-66
2021/05/03 01:10:19;;;;;;;22.52;17.38;;;12.20;58.10;;;;;;5050422;28;20108;-66
2021/05/03 01:12:44;;;;;;;15.30;13.48;;;12.10;58.30;;;;;;5048929;28;20031;-66
2021/05/03 01:15:11;;;;;;;16.35;12.85;;;12.10;57.80;;;;;;5050634;28;20029;-66
2021/05/03 01:17:40;;;;;;;20.20;13.90;;;12.10;57.90;;;;;;5051142;28;20303;-66
2021/05/03 01:20:14;;;;;;;19.83;15.43;;;12.10;58.10;;;;;;5036505;28;20025;-67
2021/05/03 01:22:41;;;;;;;19.33;15.65;;;12.10;58.10;;;;;;5049267;28;20031;-66
2021/05/03 01:25:09;;;;;;;19.50;16.25;;;12.10;58.10;;;;;;5049896;28;20028;-66
2021/05/03 01:27:35;;;;;;;19.85;15.10;;;12.00;58.00;;;;;;5022905;28;20038;-66
2021/05/03 01:30:05;;;;;;;20.20;16.67;;;12.00;58.00;;;;;;5011172;28;20386;-66
2021/05/03 01:32:31;;;;;;;19.20;15.57;;;11.90;58.10;;;;;;5026339;28;20017;-66
2021/05/03 01:34:57;;;;;;;19.42;15.95;;;12.00;58.20;;;;;;5030658;28;20249;-66
2021/05/03 01:37:23;;;;;;;18.88;15.85;;;11.90;58.20;;;;;;5030782;28;20073;-66
2021/05/03 01:39:49;;;;;;;22.77;16.15;;;11.90;58.20;;;;;;5030822;28;20024;-66
2021/05/03 01:42:15;;;;;;;20.05;16.40;;;11.90;58.20;;;;;;5029461;28;20248;-66
2021/05/03 01:44:42;;;;;;;23.23;16.77;;;11.90;58.10;;;;;;5042607;28;20047;-66
2021/05/03 01:47:09;;;;;;;17.70;15.00;;;11.90;58.70;;;;;;5050882;28;20419;-66
2021/05/03 01:49:36;;;;;;;18.50;15.85;;;11.80;58.20;;;;;;5050253;28;20094;-66
2021/05/03 01:52:02;;;;;;;18.00;15.48;;;11.80;58.20;;;;;;5050444;28;20046;-66
2021/05/03 01:54:28;;;;;;;18.08;14.55;;;11.80;58.30;;;;;;5050460;28;20082;-67
2021/05/03 01:56:54;;;;;;;20.10;15.10;;;11.70;58.40;;;;;;5048349;28;20025;-66
2021/05/03 01:59:19;;;;;;;19.25;13.93;;;11.70;58.60;;;;;;5050312;28;20056;-66
2021/05/03 02:01:45;;;;;;;18.50;14.95;;;11.70;58.60;;;;;;5050390;28;20027;-66
2021/05/03 02:04:11;;;;;;;24.38;17.02;;;11.60;58.50;;;;;;5038444;28;20424;-66
2021/05/03 02:06:37;;;;;;;19.42;16.27;;;11.60;58.40;;;;;;5030227;28;20036;-66
2021/05/03 02:09:08;;;;;;;19.33;15.95;;;11.50;58.30;;;;;;5037294;28;20035;-66
2021/05/03 02:11:35;;;;;;;21.35;15.40;;;11.50;58.40;;;;;;5050641;28;20426;-66
2021/05/03 02:14:01;;;;;;;20.70;15.43;;;11.40;58.50;;;;;;5050960;28;20374;-66
2021/05/03 02:16:27;;;;;;;20.00;14.70;;;11.30;58.50;;;;;;5050937;28;20085;-66
2021/05/03 02:18:53;;;;;;;16.40;13.52;;;11.20;58.50;;;;;;5050980;28;20025;-68
2021/05/03 02:21:19;;;;;;;18.77;14.82;;;11.10;58.50;;;;;;5045352;28;20062;-66
2021/05/03 02:23:45;;;;;;;18.27;15.07;;;11.10;58.80;;;;;;5030908;28;20505;-66
2021/05/03 02:26:10;;;;;;;17.88;14.25;;;11.00;58.90;;;;;;5030821;28;20025;-66
2021/05/03 02:28:36;;;;;;;17.33;14.43;;;10.90;59.00;;;;;;5030671;28;20025;-66
2021/05/03 02:31:02;;;;;;;17.67;14.35;;;10.80;59.00;;;;;;5030845;28;20030;-66
2021/05/03 02:33:28;;;;;;;16.58;13.50;;;10.80;59.10;;;;;;5033129;28;20040;-66
2021/05/03 02:35:54;;;;;;;18.15;14.05;;;10.70;59.20;;;;;;5049086;28;20053;-67
2021/05/03 02:38:20;;;;;;;16.83;13.95;;;10.70;59.30;;;;;;5050550;28;20017;-66
2021/05/03 02:40:45;;;;;;;18.48;14.35;;;10.60;59.50;;;;;;5050573;28;20064;-66
2021/05/03 02:43:11;;;;;;;18.40;14.70;;;10.50;59.60;;;;;;5039651;28;20017;-67
2021/05/03 02:45:37;;;;;;;17.45;14.40;;;10.50;59.70;;;;;;5030652;28;20030;-66
2021/05/03 02:48:04;;;;;;;20.05;15.82;;;10.40;59.80;;;;;;5030557;28;20113;-67
2021/05/03 02:50:30;;;;;;;18.45;15.50;;;10.40;59.90;;;;;;5030318;28;20402;-66
2021/05/03 02:52:56;;;;;;;18.42;13.93;;;10.30;60.10;;;;;;5038275;28;20048;-66
2021/05/03 02:55:22;;;;;;;16.55;13.73;;;10.20;60.30;;;;;;5050296;28;20426;-69
2021/05/03 02:57:50;;;;;;;19.67;15.43;;;10.20;60.10;;;;;;5043479;28;20049;-66
2021/05/03 03:00:26;;;;;;;21.40;14.88;;;10.10;60.10;;;;;;5030307;28;20073;-66
2021/05/03 03:02:53;;;;;;;22.83;16.58;;;10.10;60.30;;;;;;5030419;28;20104;-66
2021/05/03 03:05:18;;;;;;;21.55;16.98;;;10.00;60.60;;;;;;5040930;28;20048;-66
2021/05/03 03:07:44;;;;;;;24.15;17.05;;;10.00;61.00;;;;;;5024141;28;20052;-66
2021/05/03 03:10:11;;;;;;;21.02;16.17;;;10.00;61.10;;;;;;5010272;28;20429;-67
2021/05/03 03:12:37;;;;;;;17.60;14.07;;;9.90;61.90;;;;;;5009866;28;20440;-66
2021/05/03 03:15:04;;;;;;;19.38;15.25;;;9.90;61.20;;;;;;5009016;28;20399;-66
2021/05/03 03:17:30;;;;;;;25.50;15.75;;;9.90;61.40;;;;;;5022043;28;20013;-65
2021/05/03 03:19:56;;;;;;;23.60;18.67;;;9.80;61.40;;;;;;5030219;28;20378;-66
2021/05/03 03:22:22;;;;;;;20.83;16.60;;;9.80;61.80;;;;;;5029986;28;20021;-66
2021/05/03 03:24:48;;;;;;;25.63;17.88;;;9.80;62.20;;;;;;5028530;28;20097;-66
2021/05/03 03:27:14;;;;;;;22.33;16.35;;;9.80;62.20;;;;;;5029961;28;20026;-66
2021/05/03 03:29:40;;;;;;;27.90;20.55;;;9.80;62.20;;;;;;5029393;28;20104;-66
2021/05/03 03:32:06;;;;;;;26.20;19.38;;;9.70;62.40;;;;;;5030062;28;20017;-66
2021/05/03 03:34:32;;;;;;;27.02;19.95;;;9.70;62.50;;;;;;5029809;28;20391;-66
2021/05/03 03:36:58;;;;;;;26.70;20.45;;;9.70;62.70;;;;;;5029607;28;20048;-66
2021/05/03 03:39:24;;;;;;;24.38;19.77;;;9.70;63.10;;;;;;5029882;28;20030;-66
2021/05/03 03:41:50;;;;;;;23.38;18.23;;;9.70;63.30;;;;;;5033876;28;20070;-66
2021/05/03 03:44:15;;;;;;;26.25;19.67;;;9.70;63.30;;;;;;5049328;28;20033;-66
2021/05/03 03:46:41;;;;;;;28.50;20.98;;;9.70;63.40;;;;;;5050616;28;20447;-66
2021/05/03 03:49:07;;;;;;;27.95;21.00;;;9.70;63.60;;;;;;5051662;28;20071;-66
2021/05/03 03:51:33;;;;;;;25.17;19.52;;;9.70;63.80;;;;;;5053164;28;20161;-66
2021/05/03 03:53:59;;;;;;;23.02;17.88;;;9.70;63.90;;;;;;5051322;28;20029;-66
2021/05/03 03:56:27;;;;;;;21.83;17.58;;;9.70;63.90;;;;;;5046822;28;20038;-66
2021/05/03 03:58:53;;;;;;;23.65;18.08;;;9.70;63.70;;;;;;5032899;28;20382;-66
2021/05/03 04:01:19;;;;;;;27.13;21.67;;;9.70;63.80;;;;;;5031750;28;20030;-66
2021/05/03 04:04:00;;;;;;;27.13;20.30;;;9.70;63.90;;;;;;5033113;28;20475;-65
2021/05/03 04:11:52;;;;;;;29.73;21.88;;;9.60;64.10;;;;;;5033074;28;20117;-65
2021/05/03 04:22:59;;;;;;;35.63;24.48;;;9.70;64.90;;;;;;5041990;28;20040;-66
2021/05/03 04:25:35;;;;;;;29.38;22.30;;;9.70;65.00;;;;;;5045859;28;20036;-66
2021/05/03 04:28:02;;;;;;;30.30;21.48;;;9.70;64.90;;;;;;5034568;28;20041;-66
2021/05/03 04:30:28;;;;;;;29.60;22.75;;;9.70;64.90;;;;;;5032407;28;20138;-66
2021/05/03 04:32:55;;;;;;;28.88;23.42;;;9.70;64.90;;;;;;5046047;28;20021;-66
2021/05/03 04:35:21;;;;;;;32.97;24.10;;;9.70;64.90;;;;;;5051232;28;20389;-66
2021/05/03 04:37:47;;;;;;;31.10;23.60;;;9.80;65.10;;;;;;5052458;28;20032;-66
2021/05/03 04:40:13;;;;;;;46.38;23.27;;;9.80;65.20;;;;;;5052459;28;20028;-66
2021/05/03 04:42:39;;;;;;;34.30;23.00;;;9.80;65.30;;;;;;5039905;28;20390;-66
2021/05/03 04:45:06;;;;;;;30.80;22.75;;;9.80;65.20;;;;;;5032249;28;20032;-66
2021/05/03 04:47:32;;;;;;;30.20;21.98;;;9.80;65.30;;;;;;5032368;28;20032;-66
2021/05/03 04:49:58;;;;;;;32.28;22.98;;;9.90;65.30;;;;;;5032177;28;20045;-66
2021/05/03 04:52:28;;;;;;;32.75;24.80;;;9.90;65.30;;;;;;5031941;28;20018;-66
2021/05/03 04:54:53;;;;;;;31.13;24.15;;;9.90;65.20;;;;;;5032388;28;20018;-66
2021/05/03 04:57:19;;;;;;;33.17;25.77;;;10.00;65.20;;;;;;5032453;28;20048;-66
2021/05/03 04:59:45;;;;;;;27.05;20.95;;;10.00;65.10;;;;;;5032291;28;20030;-66
2021/05/03 05:02:11;;;;;;;28.98;22.48;;;10.00;65.00;;;;;;5032172;28;20510;-66
2021/05/03 05:04:37;;;;;;;31.92;24.73;;;10.10;65.00;;;;;;5031885;28;20061;-66
2021/05/03 05:07:04;;;;;;;31.10;23.58;;;10.10;64.90;;;;;;5029397;28;20432;-66
2021/05/03 05:09:29;;;;;;;32.50;22.58;;;10.20;64.80;;;;;;5021927;28;20025;-66
2021/05/03 05:11:55;;;;;;;32.25;22.83;;;10.20;64.70;;;;;;5045157;28;20021;-66
2021/05/03 05:14:21;;;;;;;33.22;24.02;;;10.30;64.80;;;;;;5031621;28;20029;-66
2021/05/03 05:16:48;;;;;;;29.60;22.13;;;10.30;64.80;;;;;;5030768;28;20064;-66
2021/05/03 05:19:15;;;;;;;32.58;22.92;;;10.40;64.70;;;;;;5035693;28;20489;-66
2021/05/03 05:21:41;;;;;;;28.45;22.33;;;10.40;64.70;;;;;;5046381;28;20453;-66
2021/05/03 05:24:08;;;;;;;27.98;21.92;;;10.50;64.60;;;;;;5031876;28;20486;-66
2021/05/03 05:26:33;;;;;;;29.30;21.02;;;10.50;64.30;;;;;;5029585;28;20114;-66
2021/05/03 05:29:00;;;;;;;34.47;22.30;;;10.60;64.10;;;;;;5031426;28;20090;-66
2021/05/03 05:31:25;;;;;;;32.67;22.52;;;10.70;63.90;;;;;;5037783;28;20028;-66
2021/05/03 05:33:51;;;;;;;31.58;24.02;;;10.70;63.70;;;;;;5050166;28;20390;-66
2021/05/03 05:36:17;;;;;;;26.88;20.75;;;10.80;63.40;;;;;;5037293;28;20033;-66
2021/05/03 05:38:44;;;;;;;28.60;21.98;;;10.90;63.30;;;;;;5030213;28;20021;-66
2021/05/03 05:41:13;;;;;;;27.80;21.10;;;10.90;62.80;;;;;;5030847;28;20405;-66
2021/05/03 05:43:40;;;;;;;27.80;20.77;;;11.00;62.40;;;;;;5031007;28;20032;-66
2021/05/03 05:46:06;;;;;;;26.60;21.27;;;11.00;62.20;;;;;;5030834;28;20467;-66
2021/05/03 05:48:32;;;;;;;26.60;21.30;;;11.10;61.60;;;;;;5030691;28;20029;-66
2021/05/03 05:50:58;;;;;;;26.70;20.70;;;11.20;61.10;;;;;;5031074;28;20037;-66
2021/05/03 05:53:23;;;;;;;32.95;21.00;;;11.20;60.30;;;;;;5037801;28;20013;-66
2021/05/03 05:55:49;;;;;;;21.95;18.25;;;11.30;60.00;;;;;;5035029;28;20022;-66
2021/05/03 05:58:15;;;;;;;26.40;20.10;;;11.40;60.00;;;;;;5030714;28;20022;-66
2021/05/03 06:00:41;;;;;;;28.13;20.45;;;11.40;59.20;;;;;;5030371;28;20108;-67
2021/05/03 06:03:07;;;;;;;47.53;28.83;;;11.50;59.20;;;;;;5043947;28;20494;-66
2021/05/03 06:05:33;;;;;;;29.40;21.58;;;11.60;59.50;;;;;;5036143;28;20057;-66
2021/05/03 06:07:59;;;;;;;26.17;20.30;;;11.60;58.80;;;;;;5016303;28;20085;-66
2021/05/03 06:10:24;;;;;;;30.52;20.58;;;11.70;58.50;;;;;;5028365;28;20228;-67
2021/05/03 06:12:50;;;;;;;23.98;19.75;;;11.70;58.30;;;;;;5030363;28;20471;-66
2021/05/03 06:15:16;;;;;;;23.45;20.08;;;11.70;58.20;;;;;;5030154;28;20063;-66
2021/05/03 06:17:42;;;;;;;27.70;19.67;;;11.80;58.00;;;;;;5030233;28;20474;-67
2021/05/03 06:20:08;;;;;;;28.63;19.40;;;11.80;57.90;;;;;;5030560;28;20142;-66
2021/05/03 06:22:34;;;;;;;27.98;21.27;;;11.80;57.90;;;;;;5030961;28;20028;-66
2021/05/03 06:25:00;;;;;;;23.55;18.20;;;11.90;57.90;;;;;;5043300;28;20029;-67
2021/05/03 06:27:27;;;;;;;27.70;20.30;;;12.00;58.00;;;;;;5046472;28;20356;-67
2021/05/03 06:29:52;;;;;;;25.58;20.63;;;12.10;57.90;;;;;;5029325;28;20029;-67
2021/05/03 06:32:18;;;;;;;25.30;19.60;;;12.20;57.30;;;;;;5028463;28;20037;-68
2021/05/03 06:34:44;;;;;;;22.63;18.55;;;12.40;57.20;;;;;;5015803;28;20029;-69
2021/05/03 06:37:10;;;;;;;27.63;20.25;;;12.40;56.60;;;;;;5011200;28;20067;-69
2021/05/03 06:39:42;;;;;;;32.13;19.30;;;12.50;56.10;;;;;;5015277;28;20087;-71
2021/05/03 06:42:15;;;;;;;25.65;20.48;;;12.60;55.80;;;;;;5043125;27;20056;-68
2021/05/03 06:44:48;;;;;;;23.45;19.50;;;12.70;55.70;;;;;;5023059;28;20021;-67
2021/05/03 06:47:20;;;;;;;23.98;19.20;;;12.80;55.70;;;;;;5024403;28;20025;-68
2021/05/03 06:49:53;;;;;;;25.70;19.95;;;12.90;55.20;;;;;;5030629;28;20064;-68
2021/05/03 06:52:26;;;;;;;23.67;19.25;;;13.00;55.30;;;;;;5020516;28;20032;-68
2021/05/03 06:54:58;;;;;;;18.38;15.38;;;13.10;55.20;;;;;;5027877;28;20029;-68
2021/05/03 06:57:32;;;;;;;19.45;15.70;;;13.30;55.60;;;;;;5021923;28;20455;-68
2021/05/03 06:59:58;;;;;;;22.80;18.50;;;13.40;55.60;;;;;;5024182;28;20688;-68
2021/05/03 07:02:24;;;;;;;24.95;18.17;;;13.60;54.60;;;;;;5025742;28;20358;-67
2021/05/03 07:04:50;;;;;;;18.80;15.23;;;13.70;54.10;;;;;;5028086;28;20060;-68
2021/05/03 07:07:16;;;;;;;21.13;16.30;;;13.80;53.60;;;;;;5026086;28;20060;-67
2021/05/03 07:09:46;;;;;;;21.88;18.02;;;13.90;52.90;;;;;;5020507;28;20030;-67
2021/05/03 07:12:13;;;;;;;20.15;16.45;;;13.90;52.90;;;;;;5028489;28;20033;-67
2021/05/03 07:14:39;;;;;;;19.75;15.90;;;14.00;53.30;;;;;;5022715;28;20408;-68
2021/05/03 07:17:05;;;;;;;21.95;16.23;;;14.10;53.00;;;;;;5027137;28;20082;-67
2021/05/03 07:19:32;;;;;;;19.98;14.68;;;14.20;52.60;;;;;;5030065;28;20041;-68
2021/05/03 07:22:00;;;;;;;19.35;15.98;;;14.30;52.90;;;;;;5028022;28;20037;-74
2021/05/03 07:24:25;;;;;;;22.48;17.17;;;14.40;51.90;;;;;;5025236;28;20394;-73
2021/05/03 07:26:51;;;;;;;19.85;15.02;;;14.60;51.40;;;;;;5025747;28;20026;-72
2021/05/03 07:29:17;;;;;;;17.88;14.68;;;14.70;51.10;;;;;;5021293;28;20428;-74
2021/05/03 07:31:43;;;;;;;21.08;15.27;;;14.80;50.50;;;;;;5019138;28;20033;-73
2021/05/03 07:34:10;;;;;;;26.02;15.75;;;14.90;50.10;;;;;;5027700;28;20395;-72
2021/05/03 07:36:36;;;;;;;20.05;15.55;;;14.90;49.10;;;;;;5027809;28;20108;-71
2021/05/03 07:39:05;;;;;;;16.77;13.57;;;14.90;49.20;;;;;;5022346;28;20044;-72
2021/05/03 07:41:31;;;;;;;17.25;14.32;;;14.90;50.00;;;;;;5017592;28;20025;-72
2021/05/03 07:43:57;;;;;;;18.00;15.15;;;15.00;49.40;;;;;;5023912;28;20021;-74
2021/05/03 07:46:25;;;;;;;18.48;13.60;;;15.00;49.00;;;;;;5018527;28;20669;-72
2021/05/03 07:48:58;;;;;;;15.18;11.95;;;15.00;49.10;;;;;;5020206;28;20403;-73
2021/05/03 07:51:25;;;;;;;16.20;12.23;;;15.00;49.40;;;;;;5022194;28;20030;-73
2021/05/03 07:53:52;;;;;;;14.35;11.48;;;15.00;47.80;;;;;;5022395;28;20026;-71
2021/05/03 07:56:18;;;;;;;18.70;11.30;;;15.10;47.50;;;;;;5014098;28;20022;-73
2021/05/03 07:58:45;;;;;;;15.23;11.07;;;15.10;47.00;;;;;;5014146;28;20040;-73
2021/05/03 08:01:11;;;;;;;16.67;12.98;;;15.20;47.40;;;;;;5027965;28;20026;-72
2021/05/03 08:03:39;;;;;;;14.75;12.30;;;15.20;47.30;;;;;;5030877;28;20037;-73
2021/05/03 08:06:07;;;;;;;14.13;10.80;;;15.20;46.70;;;;;;5047615;28;20120;-72
2021/05/03 08:08:33;;;;;;;20.30;13.90;;;15.20;46.90;;;;;;5047317;28;20034;-73
2021/05/03 08:10:59;;;;;;;14.98;12.48;;;15.10;46.40;;;;;;5047992;28;20036;-72
2021/05/03 08:13:29;;;;;;;14.88;10.82;;;15.10;46.20;;;;;;5047757;28;20021;-73
2021/05/03 08:15:59;;;;;;;13.93;10.23;;;15.00;45.50;;;;;;5046533;28;20017;-73
2021/05/03 08:18:25;;;;;;;16.27;10.20;;;14.90;45.10;;;;;;5013048;28;20475;-75
2021/05/03 08:20:51;;;;;;;21.17;10.02;;;14.80;44.90;;;;;;5028457;28;20036;-71
2021/05/03 08:23:19;;;;;;;14.10;10.70;;;14.80;45.20;;;;;;5026909;28;20034;-73
2021/05/03 08:25:50;;;;;;;13.10;9.82;;;14.80;45.70;;;;;;5048172;28;20803;-74
2021/05/03 08:28:16;;;;;;;11.70;8.85;;;14.80;45.90;;;;;;5047866;28;20025;-74
2021/05/03 08:30:43;;;;;;;13.32;9.43;;;14.90;46.00;;;;;;5046895;28;20021;-74
2021/05/03 08:33:09;;;;;;;11.50;9.93;;;15.00;45.90;;;;;;5047967;28;20032;-73
2021/05/03 08:35:35;;;;;;;12.02;8.55;;;15.20;45.70;;;;;;5050074;28;20025;-73
2021/05/03 08:38:01;;;;;;;11.43;9.02;;;15.40;45.70;;;;;;5051619;28;20489;-72
2021/05/03 08:40:28;;;;;;;9.80;8.20;;;15.50;44.90;;;;;;5036196;28;20382;-74
2021/05/03 08:42:55;;;;;;;11.75;8.32;;;15.70;45.50;;;;;;5051744;28;20028;-72
2021/05/03 08:45:21;;;;;;;10.35;8.32;;;15.90;45.00;;;;;;5036218;28;20120;-74
2021/05/03 08:50:43;;;;;;;11.07;8.07;;;16.30;43.50;;;;;;5051720;27;20400;-69
2021/05/03 08:53:11;;;;;;;13.18;9.32;;;16.50;44.40;;;;;;5103290;27;20021;-82
2021/05/03 08:55:37;;;;;;;12.68;9.23;;;16.60;42.70;;;;;;5031694;28;20034;-81
2021/05/03 08:58:03;;;;;;;12.18;7.93;;;16.70;41.40;;;;;;5032613;28;20025;-81
2021/05/03 09:00:29;;;;;;;9.40;8.30;;;16.70;41.90;;;;;;5032851;28;20033;-82
2021/05/03 09:02:55;;;;;;;21.98;8.20;;;16.80;42.30;;;;;;5032382;28;20026;-81
2021/05/03 09:05:22;;;;;;;12.48;8.10;;;16.90;42.00;;;;;;5031462;28;20424;-81
2021/05/03 09:07:51;;;;;;;9.95;7.30;;;17.00;41.70;;;;;;5012758;28;20033;-81
2021/05/03 09:10:19;;;;;;;8.98;7.82;;;17.00;41.50;;;;;;5012624;28;20022;-82
2021/05/03 09:12:46;;;;;;;7.25;6.05;;;17.00;40.00;;;;;;5012670;28;20101;-80
2021/05/03 09:15:12;;;;;;;7.78;6.32;;;17.10;40.60;;;;;;5015749;28;20078;-81
2021/05/03 09:17:40;;;;;;;7.90;6.13;;;17.20;39.10;;;;;;5032476;28;20025;-81
2021/05/03 09:20:11;;;;;;;7.82;5.78;;;17.20;39.00;;;;;;5032340;28;20062;-81
2021/05/03 09:22:42;;;;;;;11.80;6.22;;;17.20;39.10;;;;;;5032172;28;20074;-82
2021/05/03 09:25:30;;;;;;;7.45;5.55;;;17.20;39.00;;;;;;5031194;28;20025;-80
2021/05/03 09:28:04;;;;;;;6.13;5.22;;;17.30;40.10;;;;;;5030935;28;20025;-81
2021/05/03 09:30:38;;;;;;;10.27;5.88;;;17.40;39.90;;;;;;5031258;28;20475;-82
2021/05/03 09:33:25;;;;;;;6.50;5.10;;;17.50;38.10;;;;;;5030866;28;20101;-81
2021/05/03 09:35:55;;;;;;;7.22;6.00;;;17.60;38.40;;;;;;5027468;28;20026;-80
2021/05/03 09:38:30;;;;;;;10.10;7.05;;;17.70;38.10;;;;;;5012326;28;20036;-79
2021/05/03 09:41:10;;;;;;;10.48;5.32;;;17.80;38.30;;;;;;5020183;28;20167;-67
2021/05/03 09:43:37;;;;;;;8.00;5.55;;;17.90;39.20;;;;;;5026716;28;20033;-67
2021/05/03 09:46:42;;;;;;;8.52;5.38;;;18.10;37.60;;;;;;5040511;27;20113;-67
2021/05/03 09:49:08;;;;;;;;;;;18.30;36.30;;;;;;5031910;27;20127;-68
2021/05/03 09:51:44;;;;;;;6.18;4.43;;;18.40;38.60;;;;;;5017532;28;19959;-70
2021/05/03 09:54:14;;;;;;;5.38;4.13;;;18.50;33.90;;;;;;5027386;28;20367;-69
2021/05/03 09:56:50;;;;;;;9.38;4.57;;;18.50;34.30;;;;;;5031297;28;20378;-70
2021/05/03 09:59:45;;;;;;;4.78;3.80;;;18.50;33.30;;;;;;5022271;28;20026;-69
2021/05/03 10:02:18;;;;;;;5.82;4.60;;;18.50;34.30;;;;;;5012661;28;20037;-70
2021/05/03 10:04:55;;;;;;;7.23;4.90;;;18.50;33.20;;;;;;5011960;28;20109;-69
2021/05/03 10:07:22;;;;;;;5.55;4.50;;;18.50;33.50;;;;;;5017320;28;20052;-69
2021/05/03 10:09:59;;;;;;;4.80;3.50;;;18.50;33.70;;;;;;5015392;28;20037;-69
2021/05/03 10:12:26;;;;;;;6.00;4.68;;;18.60;34.50;;;;;;5011139;28;20026;-69
2021/05/03 10:14:53;;;;;;;5.45;4.35;;;18.80;34.60;;;;;;5015404;28;20035;-69
2021/05/03 10:17:20;;;;;;;5.38;3.92;;;18.80;33.70;;;;;;5054716;27;20047;-70
2021/05/03 10:19:48;;;;;;;6.65;4.05;;;18.90;34.40;;;;;;5134927;27;20019;-70
2021/05/03 10:22:19;;;;;;;5.30;3.85;;;18.90;34.60;;;;;;5061990;27;20104;-69
2021/05/03 10:24:48;;;;;;;3.65;2.90;;;18.90;32.20;;;;;;5010760;28;20037;-69
2021/05/03 10:27:17;;;;;;;6.38;3.55;;;18.80;31.80;;;;;;5028055;28;20036;-69
2021/05/03 10:29:43;;;;;;;2.92;2.63;;;18.60;31.50;;;;;;5030201;28;20028;-69
2021/05/03 10:32:12;;;;;;;5.15;2.50;;;18.30;31.30;;;;;;5029342;28;20026;-69
2021/05/03 10:34:43;;;;;;;3.67;2.33;;;18.20;33.00;;;;;;5029346;28;20033;-65
2021/05/03 10:37:27;;;;;;;3.88;2.55;;;18.10;33.70;;;;;;5030592;28;20097;-69
2021/05/03 10:39:53;;;;;;;3.78;2.28;;;18.10;34.50;;;;;;5024112;28;20022;-70
2021/05/03 10:42:19;;;;;;;5.50;2.75;;;18.00;34.20;;;;;;5054256;27;20029;-69
2021/05/03 10:45:17;;;;;;;6.70;2.45;;;17.90;34.10;;;;;;5010780;28;20029;-70
2021/05/03 10:47:46;;;;;;;3.72;2.60;;;17.80;34.40;;;;;;5006631;28;20509;-71
2021/05/03 10:50:36;;;;;;;4.05;3.25;;;17.70;34.10;;;;;;5021096;28;20045;-67
2021/05/03 10:53:22;;;;;;;4.80;3.17;;;17.50;34.60;;;;;;5017370;28;20093;-67
2021/05/03 10:56:06;;;;;;;5.78;3.47;;;17.40;35.30;;;;;;5027383;28;20049;-67
2021/05/03 10:58:54;;;;;;;5.10;3.85;;;17.20;34.70;;;;;;5029394;28;20052;-67
2021/05/03 11:01:21;;;;;;;4.43;3.60;;;17.20;35.20;;;;;;5027362;28;20029;-67
2021/05/03 11:04:13;;;;;;;5.97;3.78;;;17.20;36.00;;;;;;5009622;28;20033;-67
2021/05/03 11:06:50;;;;;;;5.00;3.45;;;17.20;36.40;;;;;;5012204;28;20071;-67
2021/05/03 11:09:27;;;;;;;3.92;2.92;;;17.20;36.20;;;;;;5013748;28;20033;-66
2021/05/03 11:12:01;;;;;;;4.53;3.60;;;17.20;36.20;;;;;;5024558;28;20018;-67
2021/05/03 11:14:30;;;;;;;6.93;3.88;;;17.30;36.20;;;;;;5019766;28;20049;-67
2021/05/03 11:17:06;;;;;;;5.03;3.10;;;17.20;36.20;;;;;;5121856;27;20026;-66
2021/05/03 11:19:56;;;;;;;4.80;2.80;;;17.20;36.50;;;;;;5048294;27;20117;-66
2021/05/03 11:22:25;;;;;;;8.43;3.80;;;17.30;36.60;;;;;;5022429;28;20028;-66
2021/05/03 11:24:58;;;;;;;5.35;3.67;;;17.30;36.00;;;;;;5022672;28;20029;-66
2021/05/03 11:28:27;;;;;;;5.55;2.40;;;17.30;35.70;;;;;;5022580;28;20030;-66
2021/05/03 11:30:40;;;;;;;5.82;3.03;;;17.50;36.50;;;;;;5030827;28;20098;-70
2021/05/03 11:35:38;;;;;;;4.20;3.13;;;17.70;35.60;;;;;;5009298;28;20022;-71
2021/05/03 11:46:31;;;;;;;5.93;3.65;;;17.80;35.00;;;;;;5009070;28;20041;-69
2021/05/03 11:49:00;;;;;;;6.43;4.10;;;17.80;35.20;;;;;;5026585;28;20080;-69
2021/05/03 11:51:26;;;;;;;8.05;4.88;;;17.80;35.00;;;;;;5021351;28;20026;-71
2021/05/03 11:53:55;;;;;;;5.70;4.10;;;17.70;34.90;;;;;;5023450;28;20029;-71
2021/05/03 11:56:25;;;;;;;6.40;4.75;;;17.60;35.20;;;;;;5022992;28;20439;-71
2021/05/03 11:58:59;;;;;;;6.63;4.25;;;17.60;35.50;;;;;;5013966;28;20579;-70
2021/05/03 12:01:30;;;;;;;6.57;4.80;;;17.50;35.80;;;;;;5009198;28;20030;-71
2021/05/03 12:03:59;;;;;;;9.18;5.18;;;17.50;35.50;;;;;;5007398;28;20419;-69
2021/05/03 12:06:33;;;;;;;5.32;4.72;;;17.50;34.80;;;;;;5008876;28;20026;-69
2021/05/03 12:09:07;;;;;;;4.78;3.67;;;17.60;34.80;;;;;;5015310;28;20108;-70
2021/05/03 12:11:34;;;;;;;7.47;4.90;;;17.80;35.10;;;;;;5012326;28;20360;-70
2021/05/03 12:14:00;;;;;;;5.88;4.78;;;18.00;34.90;;;;;;5023454;28;20026;-70
2021/05/03 12:16:38;;;;;;;8.00;4.82;;;18.20;34.70;;;;;;5021174;28;20379;-69
2021/05/03 12:19:10;;;;;;;7.57;4.88;;;18.40;34.40;;;;;;5015684;28;20117;-70
2021/05/03 12:21:35;;;;;;;5.38;4.68;;;18.60;33.70;;;;;;5011701;28;20026;-69
2021/05/03 12:24:19;;;;;;;7.07;5.03;;;18.70;32.90;;;;;;5021838;28;20052;-69
2021/05/03 12:26:51;;;;;;;8.68;4.63;;;18.70;32.20;;;;;;5030965;28;20030;-69
2021/05/03 12:29:17;;;;;;;6.68;5.30;;;18.70;32.20;;;;;;5029893;28;20026;-69
2021/05/03 12:31:43;;;;;;;6.70;4.85;;;18.60;32.10;;;;;;5023829;28;20463;-67
2021/05/03 12:34:09;;;;;;;5.15;4.40;;;18.50;32.40;;;;;;5070678;27;20030;-69
2021/05/03 12:36:35;;;;;;;6.28;4.75;;;18.30;33.10;;;;;;5067033;27;20050;-69
2021/05/03 12:39:10;;;;;;;7.13;6.15;;;18.10;34.20;;;;;;5032007;28;20034;-72
2021/05/03 12:41:35;;;;;;;11.00;5.57;;;17.90;38.20;;;;;;5067332;28;20035;-75
2021/05/03 12:44:07;;;;;;;19.17;7.45;;;17.70;40.80;;;;;;5019214;28;20030;-83
2021/05/03 12:46:43;;;;;;;12.23;6.95;;;17.20;46.00;;;;;;5018794;28;20354;-69
2021/05/03 12:49:14;;;;;;;13.00;7.13;;;16.80;47.70;;;;;;5027429;28;20053;-70
2021/05/03 12:52:00;;;;;;;8.27;6.93;;;16.30;48.20;;;;;;5030650;28;20017;-74
2021/05/03 12:55:01;;;;;;;11.13;7.18;;;15.80;50.50;;;;;;5030763;28;20022;-74
2021/05/03 12:58:14;;;;;;;7.85;6.53;;;15.50;51.90;;;;;;5030887;28;20037;-72
2021/05/03 13:01:04;;;;;;;9.93;6.90;;;15.30;53.40;;;;;;5091639;28;20048;-71
2021/05/03 13:03:59;;;;;;;9.45;6.15;;;15.30;54.20;;;;;;5092023;28;20031;-73
2021/05/03 13:07:05;;;;;;;9.88;6.25;;;15.40;54.90;;;;;;5089784;28;20031;-71
2021/05/03 13:12:26;;;;;;;7.03;5.40;;;15.60;55.90;;;;;;5091585;28;20024;-71
2021/05/03 13:29:20;;;;;;;6.72;4.90;;;17.20;51.30;;;;;;5091181;28;20055;-71
2021/05/03 13:31:46;;;;;;;6.28;4.50;;;17.30;50.60;;;;;;5091343;28;20389;-70